Time;durP1;ratioP1;P1;durP2;ratioP2;P2;SDS_P1;SDS_P2;PMS_P1;PMS_P2;Temp;Humidity;BMP_temperature;BMP_pressure;BME280_temperature;BME280_humidity;BME280_pressure;Samples;Min_cycle;Max_cycle;Signal;HPM_P1;HPM_P2
2024/03/18 00:00:15;;;;;;;0.00;0.00;;;;;;;7.93;100.00;100167.78;6213078;23;20055;-71
2024/03/18 00:02:45;;;;;;;0.03;0.03;;;;;;;7.96;100.00;100172.72;6238148;22;20004;-72
2024/03/18 00:05:13;;;;;;;0.00;0.00;;;;;;;7.96;100.00;100171.91;6210383;23;20347;-71
2024/03/18 00:07:41;;;;;;;0.00;0.00;;;;;;;8.02;100.00;100165.44;6237681;23;20007;-73
2024/03/18 00:10:13;;;;;;;0.00;0.00;;;;;;;8.12;100.00;100173.72;6238240;23;20075;-71
2024/03/18 00:12:39;;;;;;;0.00;0.00;;;;;;;8.14;100.00;100177.00;6238444;23;20008;-73
2024/03/18 00:15:09;;;;;;;0.00;0.00;;;;;;;8.11;100.00;100169.34;6233838;22;20019;-73
2024/03/18 00:17:35;;;;;;;0.10;0.10;;;;;;;8.08;100.00;100169.84;6241431;22;20084;-73
2024/03/18 00:20:10;;;;;;;0.00;0.00;;;;;;;7.93;100.00;100167.78;6233778;23;20008;-73
2024/03/18 00:22:35;;;;;;;0.10;0.10;;;;;;;7.71;100.00;100154.19;6188540;23;20011;-73
2024/03/18 00:25:04;;;;;;;0.00;0.00;;;;;;;7.72;100.00;100177.59;6241353;22;20434;-73
2024/03/18 00:27:29;;;;;;;0.00;0.00;;;;;;;7.63;100.00;100173.69;6236484;23;20015;-72
2024/03/18 00:29:55;;;;;;;0.00;0.00;;;;;;;7.44;100.00;100154.94;6240740;22;20324;-73
2024/03/18 00:32:20;;;;;;;0.10;0.10;;;;;;;7.42;100.00;100165.25;6234544;23;20309;-74
2024/03/18 00:34:48;;;;;;;0.00;0.00;;;;;;;7.32;100.00;100162.38;6212654;23;20015;-72
2024/03/18 00:37:13;;;;;;;0.00;0.00;;;;;;;7.41;100.00;100187.28;6212584;23;20008;-74
2024/03/18 00:39:39;;;;;;;0.00;0.00;;;;;;;7.34;100.00;100176.56;6237835;23;20015;-72
2024/03/18 00:42:04;;;;;;;0.00;0.00;;;;;;;7.33;100.00;100180.38;6238056;23;20004;-75
2024/03/18 00:44:30;;;;;;;0.00;0.00;;;;;;;7.36;100.00;100179.88;6210653;23;20014;-74
2024/03/18 00:46:55;;;;;;;0.00;0.00;;;;;;;7.27;100.00;100162.31;6239453;22;20016;-74
2024/03/18 00:49:23;;;;;;;0.10;0.10;;;;;;;7.28;100.00;100169.41;6209069;23;20362;-73
2024/03/18 00:51:49;;;;;;;0.00;0.00;;;;;;;7.12;100.00;100158.28;6237958;23;20012;-73
2024/03/18 00:54:15;;;;;;;0.00;0.00;;;;;;;7.08;100.00;100165.31;6211530;23;20016;-75
2024/03/18 00:56:42;;;;;;;0.00;0.00;;;;;;;7.03;100.00;100164.41;6236640;23;20008;-73
2024/03/18 00:59:08;;;;;;;0.00;0.00;;;;;;;7.10;100.00;100171.31;6237449;23;20504;-73
2024/03/18 01:01:34;;;;;;;0.03;0.03;;;;;;;7.07;100.00;100171.00;6184516;23;20036;-73
2024/03/18 01:03:59;;;;;;;0.00;0.00;;;;;;;7.00;100.00;100168.44;6239381;23;20095;-72
2024/03/18 01:06:25;;;;;;;0.00;0.00;;;;;;;7.03;100.00;100170.66;6236711;23;20032;-77
2024/03/18 01:08:51;;;;;;;0.00;0.00;;;;;;;7.03;100.00;100178.81;6241743;23;20011;-77
2024/03/18 01:11:17;;;;;;;0.10;0.10;;;;;;;6.98;100.00;100176.03;6212731;23;20016;-77
2024/03/18 01:13:47;;;;;;;0.00;0.00;;;;;;;6.99;100.00;100177.66;6211293;23;20111;-77
2024/03/18 01:16:19;;;;;;;0.00;0.00;;;;;;;6.92;100.00;100177.84;6214041;23;20438;-77
2024/03/18 01:18:45;;;;;;;0.00;0.00;;;;;;;6.87;100.00;100166.06;6234100;23;20019;-76
2024/03/18 01:21:11;;;;;;;0.00;0.00;;;;;;;6.86;100.00;100164.41;6212917;23;20057;-76
2024/03/18 01:23:37;;;;;;;0.00;0.00;;;;;;;6.91;100.00;100175.38;6212206;23;20012;-76
2024/03/18 01:26:04;;;;;;;0.00;0.00;;;;;;;6.72;100.00;100151.16;6211801;23;20058;-76
2024/03/18 01:28:30;;;;;;;0.00;0.00;;;;;;;6.80;100.00;100161.63;6210604;23;20012;-75
2024/03/18 01:30:57;;;;;;;0.00;0.00;;;;;;;6.73;100.00;100166.41;6234315;23;20011;-77
2024/03/18 01:33:23;;;;;;;0.00;0.00;;;;;;;6.62;100.00;100156.44;6238908;23;20018;-76
2024/03/18 01:35:49;;;;;;;0.00;0.00;;;;;;;6.61;100.00;100152.91;6209384;23;20008;-77
2024/03/18 01:38:17;;;;;;;0.00;0.00;;;;;;;6.74;100.00;100170.75;6213360;23;20415;-76
2024/03/18 01:40:43;;;;;;;0.00;0.00;;;;;;;6.75;100.00;100183.28;6237435;22;20011;-76
2024/03/18 01:43:09;;;;;;;0.00;0.00;;;;;;;6.78;100.00;100179.25;6235592;23;20012;-76
2024/03/18 01:45:40;;;;;;;0.00;0.00;;;;;;;6.79;100.00;100168.13;6250295;22;20023;-75
2024/03/18 01:48:07;;;;;;;0.00;0.00;;;;;;;6.84;100.00;100161.13;6214300;22;20018;-75
2024/03/18 01:50:33;;;;;;;0.08;0.08;;;;;;;6.88;100.00;100152.22;6217091;22;20004;-75
2024/03/18 01:52:59;;;;;;;0.00;0.00;;;;;;;6.88;100.00;100156.81;6263380;22;20050;-76
2024/03/18 01:55:25;;;;;;;0.00;0.00;;;;;;;6.85;100.00;100146.44;6217491;22;20031;-76
2024/03/18 01:57:51;;;;;;;0.00;0.00;;;;;;;6.81;100.00;100154.28;6263788;22;20010;-76
2024/03/18 02:00:24;;;;;;;0.00;0.00;;;;;;;6.72;100.00;100153.06;6242326;22;20012;-75
2024/03/18 02:02:50;;;;;;;0.00;0.00;;;;;;;6.70;100.00;100174.22;6241695;22;20082;-77
2024/03/18 02:05:16;;;;;;;0.08;0.08;;;;;;;6.65;100.00;100180.41;6268844;22;20007;-77
2024/03/18 02:07:42;;;;;;;0.00;0.00;;;;;;;6.51;100.00;100179.88;6241428;22;20035;-77
2024/03/18 02:10:09;;;;;;;0.00;0.00;;;;;;;6.47;100.00;100178.75;6268474;22;20027;-78
2024/03/18 02:12:36;;;;;;;0.00;0.00;;;;;;;6.39;100.00;100179.13;6219069;22;20033;-79
2024/03/18 02:15:02;;;;;;;0.00;0.00;;;;;;;6.39;100.00;100176.41;6239472;22;20003;-78
2024/03/18 02:17:28;;;;;;;0.00;0.00;;;;;;;6.34;100.00;100177.16;6243666;22;20000;-77
2024/03/18 02:19:53;;;;;;;0.00;0.00;;;;;;;6.29;100.00;100188.75;6191953;22;20015;-78
2024/03/18 02:22:19;;;;;;;0.00;0.00;;;;;;;6.17;100.00;100187.16;6190009;22;20008;-77
2024/03/18 02:24:44;;;;;;;0.00;0.00;;;;;;;6.07;100.00;100188.56;6197034;22;20031;-78
2024/03/18 02:27:12;;;;;;;0.00;0.00;;;;;;;6.04;100.00;100180.91;6219860;22;20113;-77
2024/03/18 02:29:38;;;;;;;0.00;0.00;;;;;;;6.13;100.00;100194.94;6246307;22;20049;-78
2024/03/18 02:32:04;;;;;;;0.00;0.00;;;;;;;6.19;100.00;100195.84;6243678;22;20565;-77
2024/03/18 02:34:30;;;;;;;0.00;0.00;;;;;;;6.14;100.00;100184.91;6217272;22;20043;-78
2024/03/18 02:36:56;;;;;;;0.00;0.00;;;;;;;6.08;100.00;100187.53;6219176;22;20008;-79
2024/03/18 02:39:27;;;;;;;0.00;0.00;;;;;;;6.13;100.00;100194.13;6235250;22;20031;-77
2024/03/18 02:41:55;;;;;;;0.00;0.00;;;;;;;6.04;100.00;100175.50;6220640;22;20062;-78
2024/03/18 02:44:21;;;;;;;0.00;0.00;;;;;;;6.05;100.00;100181.75;6215967;22;20011;-77
2024/03/18 02:46:50;;;;;;;0.00;0.00;;;;;;;5.97;100.00;100187.53;6214039;23;20024;-77
2024/03/18 02:49:15;;;;;;;0.00;0.00;;;;;;;5.93;100.00;100190.72;6212956;23;20011;-78
2024/03/18 02:51:41;;;;;;;0.00;0.00;;;;;;;5.81;100.00;100187.25;6211961;23;20327;-78
2024/03/18 02:54:07;;;;;;;0.00;0.00;;;;;;;5.73;100.00;100183.00;6209847;23;20007;-78
2024/03/18 02:56:33;;;;;;;0.00;0.00;;;;;;;5.59;100.00;100179.75;6215384;23;20019;-78
2024/03/18 02:58:59;;;;;;;0.00;0.00;;;;;;;5.60;100.00;100188.69;6214002;23;20651;-78
2024/03/18 03:01:26;;;;;;;0.00;0.00;;;;;;;5.59;100.00;100189.75;6237742;23;20007;-78
2024/03/18 03:03:51;;;;;;;0.00;0.00;;;;;;;5.48;100.00;100171.63;6239583;23;20008;-78
2024/03/18 03:06:20;;;;;;;0.00;0.00;;;;;;;5.51;100.00;100177.38;6235727;23;20039;-77
2024/03/18 03:08:46;;;;;;;0.00;0.00;;;;;;;5.66;100.00;100190.44;6191897;23;20008;-78
2024/03/18 03:11:12;;;;;;;0.00;0.00;;;;;;;5.68;100.00;100165.78;6235847;23;20019;-77
2024/03/18 03:13:38;;;;;;;0.03;0.03;;;;;;;5.76;100.00;100162.69;6214803;23;20490;-78
2024/03/18 03:16:04;;;;;;;0.00;0.00;;;;;;;5.74;100.00;100157.53;6213294;23;20061;-77
2024/03/18 03:18:29;;;;;;;0.00;0.00;;;;;;;5.89;100.00;100172.47;6212119;23;20681;-78
2024/03/18 03:20:55;;;;;;;0.00;0.00;;;;;;;5.93;100.00;100160.06;6214384;23;20043;-77
2024/03/18 03:23:21;;;;;;;0.00;0.00;;;;;;;6.01;100.00;100175.97;6236733;23;20434;-77
2024/03/18 03:25:50;;;;;;;0.00;0.00;;;;;;;6.01;100.00;100167.84;6237961;23;20014;-78
2024/03/18 03:28:19;;;;;;;0.00;0.00;;;;;;;6.06;100.00;100172.53;6236947;23;20083;-78
2024/03/18 03:30:47;;;;;;;0.00;0.00;;;;;;;5.99;100.00;100166.44;6242666;22;20071;-78
2024/03/18 03:33:14;;;;;;;0.00;0.00;;;;;;;5.97;100.00;100173.97;6239249;23;20012;-78
2024/03/18 03:35:40;;;;;;;0.00;0.00;;;;;;;5.77;100.00;100159.75;6190176;23;20012;-78
2024/03/18 03:38:05;;;;;;;0.00;0.00;;;;;;;5.75;100.00;100167.31;6187430;23;20132;-77
2024/03/18 03:40:32;;;;;;;0.08;0.08;;;;;;;5.61;100.00;100155.09;6188110;23;20040;-77
2024/03/18 03:42:57;;;;;;;0.00;0.00;;;;;;;5.65;100.00;100156.25;6238007;23;20015;-77
2024/03/18 03:45:25;;;;;;;0.10;0.10;;;;;;;5.63;100.00;100169.22;6212973;23;20448;-77
2024/03/18 03:47:52;;;;;;;0.00;0.00;;;;;;;5.58;100.00;100166.41;6238491;23;20301;-76
2024/03/18 03:50:18;;;;;;;0.00;0.00;;;;;;;5.54;100.00;100170.66;6234949;23;20015;-77
2024/03/18 03:52:43;;;;;;;0.00;0.00;;;;;;;5.46;100.00;100162.88;6239343;23;20475;-75
2024/03/18 03:55:08;;;;;;;0.10;0.10;;;;;;;5.54;100.00;100176.09;6237102;23;20016;-78
2024/03/18 03:57:34;;;;;;;0.00;0.00;;;;;;;5.65;100.00;100161.69;6235663;23;20103;-76
2024/03/18 03:59:59;;;;;;;0.00;0.00;;;;;;;5.76;100.00;100166.22;6188559;23;20091;-77
2024/03/18 04:02:25;;;;;;;0.00;0.00;;;;;;;5.83;100.00;100157.16;6210245;23;20381;-76
2024/03/18 04:04:50;;;;;;;0.00;0.00;;;;;;;6.02;100.00;100166.78;6189097;23;20012;-77
2024/03/18 04:07:25;;;;;;;0.00;0.00;;;;;;;5.98;100.00;100151.22;6210120;23;20065;-77
2024/03/18 04:09:50;;;;;;;;;;;;;;;6.23;100.00;100181.53;6213977;23;20031;-76
2024/03/18 04:12:17;;;;;;;0.00;0.00;;;;;;;6.16;100.00;100147.47;6236601;23;20248;-76
2024/03/18 04:14:43;;;;;;;0.05;0.05;;;;;;;6.36;100.00;100169.56;6211930;23;20019;-76
2024/03/18 04:17:10;;;;;;;0.00;0.00;;;;;;;6.53;100.00;100180.47;6211818;23;20016;-76
2024/03/18 04:19:37;;;;;;;0.00;0.00;;;;;;;6.52;100.00;100169.84;6210428;23;20008;-78
2024/03/18 04:22:03;;;;;;;0.03;0.03;;;;;;;6.56;100.00;100176.44;6240217;22;20011;-79
2024/03/18 04:24:29;;;;;;;0.05;0.05;;;;;;;6.57;100.00;100180.78;6236526;22;20007;-79
2024/03/18 04:26:54;;;;;;;0.00;0.00;;;;;;;6.64;100.00;100189.59;6213340;23;20007;-78
2024/03/18 04:29:19;;;;;;;0.00;0.00;;;;;;;6.67;100.00;100172.00;6235751;23;20054;-77
2024/03/18 04:31:45;;;;;;;0.00;0.00;;;;;;;6.75;100.00;100177.84;6211292;23;20004;-76
2024/03/18 04:34:10;;;;;;;0.00;0.00;;;;;;;6.78;100.00;100188.22;6185357;23;20424;-78
2024/03/18 04:36:35;;;;;;;0.00;0.00;;;;;;;6.75;100.00;100186.00;6185971;23;20031;-78
2024/03/18 04:39:03;;;;;;;0.00;0.00;;;;;;;6.70;100.00;100171.50;6238093;23;20035;-77
2024/03/18 04:41:29;;;;;;;0.00;0.00;;;;;;;6.65;100.00;100180.41;6184493;23;20008;-75
2024/03/18 04:43:54;;;;;;;0.00;0.00;;;;;;;6.72;100.00;100191.94;6237981;23;20088;-77
2024/03/18 04:46:20;;;;;;;0.00;0.00;;;;;;;6.69;100.00;100187.00;6233422;23;20383;-76
2024/03/18 04:48:47;;;;;;;0.00;0.00;;;;;;;6.68;100.00;100190.78;6238956;22;20012;-76
2024/03/18 04:51:13;;;;;;;0.00;0.00;;;;;;;6.68;100.00;100184.53;6186152;23;20304;-78
2024/03/18 04:53:38;;;;;;;0.00;0.00;;;;;;;6.72;100.00;100186.50;6185452;23;20026;-78
2024/03/18 04:56:04;;;;;;;0.00;0.00;;;;;;;6.90;100.00;100203.63;6239116;23;20012;-78
2024/03/18 04:58:30;;;;;;;0.00;0.00;;;;;;;6.92;100.00;100196.88;6209605;23;20015;-78
2024/03/18 05:00:55;;;;;;;0.00;0.00;;;;;;;7.00;100.00;100203.78;6238772;23;20325;-78
2024/03/18 05:03:21;;;;;;;0.10;0.10;;;;;;;7.02;100.00;100190.75;6210783;23;20079;-79
2024/03/18 05:05:46;;;;;;;0.00;0.00;;;;;;;7.09;100.00;100198.75;6236106;23;20437;-78
2024/03/18 05:08:12;;;;;;;0.00;0.00;;;;;;;7.12;100.00;100195.53;6237039;23;20070;-78
2024/03/18 05:10:39;;;;;;;0.10;0.10;;;;;;;7.12;100.00;100184.66;6210865;23;20004;-78
2024/03/18 05:13:05;;;;;;;0.00;0.00;;;;;;;7.20;100.00;100188.84;6211880;23;20032;-77
2024/03/18 05:15:31;;;;;;;0.00;0.00;;;;;;;7.21;100.00;100179.63;6186440;23;20683;-77
2024/03/18 05:17:56;;;;;;;0.00;0.00;;;;;;;7.11;100.00;100172.97;6211219;23;20060;-78
2024/03/18 05:20:22;;;;;;;0.00;0.00;;;;;;;7.22;100.00;100184.00;6186027;23;20065;-77
2024/03/18 05:22:47;;;;;;;0.00;0.00;;;;;;;7.35;100.00;100178.22;6185276;23;20454;-78
2024/03/18 05:25:14;;;;;;;0.00;0.00;;;;;;;7.49;100.00;100186.81;6185687;23;20004;-77
2024/03/18 05:27:39;;;;;;;0.00;0.00;;;;;;;7.57;100.00;100180.13;6211414;23;20012;-78
2024/03/18 05:30:06;;;;;;;0.00;0.00;;;;;;;7.62;100.00;100169.31;6211470;23;19996;-78
2024/03/18 05:32:32;;;;;;;0.00;0.00;;;;;;;7.72;100.00;100166.72;6211096;23;20103;-78
2024/03/18 05:34:57;;;;;;;0.00;0.00;;;;;;;7.79;100.00;100161.91;6237404;22;20000;-76
2024/03/18 05:37:23;;;;;;;0.00;0.00;;;;;;;7.93;100.00;100175.13;6238440;22;20008;-78
2024/03/18 05:39:48;;;;;;;0.00;0.00;;;;;;;8.05;100.00;100181.25;6184363;23;20792;-78
2024/03/18 05:42:14;;;;;;;0.00;0.00;;;;;;;8.05;100.00;100167.66;6213578;23;20131;-77
2024/03/18 05:44:39;;;;;;;0.10;0.10;;;;;;;8.20;100.00;100178.69;6209669;23;20331;-78
2024/03/18 05:47:05;;;;;;;0.00;0.00;;;;;;;8.27;100.00;100178.50;6236492;23;20099;-78
2024/03/18 05:49:32;;;;;;;0.00;0.00;;;;;;;8.34;100.00;100183.75;6209924;23;20744;-77
2024/03/18 05:51:58;;;;;;;0.00;0.00;;;;;;;8.38;100.00;100195.75;6234310;23;20004;-77
2024/03/18 05:54:24;;;;;;;0.00;0.00;;;;;;;8.32;100.00;100180.44;6188751;23;20066;-78
2024/03/18 05:56:49;;;;;;;0.00;0.00;;;;;;;8.36;100.00;100187.03;6212580;23;20024;-78
2024/03/18 05:59:15;;;;;;;0.00;0.00;;;;;;;8.38;100.00;100193.03;6213365;23;20015;-79
2024/03/18 06:01:41;;;;;;;0.00;0.00;;;;;;;8.39;100.00;100191.97;6209068;23;20015;-79
2024/03/18 06:04:08;;;;;;;0.00;0.00;;;;;;;8.36;100.00;100187.03;6211415;23;20023;-79
2024/03/18 06:06:34;;;;;;;0.10;0.10;;;;;;;8.28;100.00;100184.75;6236620;23;20603;-79
2024/03/18 06:09:01;;;;;;;0.00;0.00;;;;;;;8.20;100.00;100181.41;6236209;23;20408;-79
2024/03/18 06:11:26;;;;;;;0.00;0.00;;;;;;;8.21;100.00;100193.97;6212769;23;20031;-79
2024/03/18 06:13:52;;;;;;;0.10;0.10;;;;;;;8.17;100.00;100187.38;6210581;23;20012;-78
2024/03/18 06:16:18;;;;;;;0.00;0.00;;;;;;;8.27;100.00;100194.84;6234955;22;20008;-76
2024/03/18 06:18:43;;;;;;;0.10;0.10;;;;;;;8.33;100.00;100204.72;6210378;23;20085;-76
2024/03/18 06:21:16;;;;;;;0.00;0.00;;;;;;;8.37;100.00;100205.03;6209184;23;20012;-77
2024/03/18 06:23:51;;;;;;;0.00;0.00;;;;;;;8.40;100.00;100196.34;6235595;23;20138;-77
2024/03/18 06:26:17;;;;;;;0.00;0.00;;;;;;;8.45;100.00;100203.78;6211153;23;20008;-77
2024/03/18 06:28:43;;;;;;;0.00;0.00;;;;;;;8.48;100.00;100204.06;6237313;22;20019;-76
2024/03/18 06:31:10;;;;;;;0.00;0.00;;;;;;;8.53;100.00;100209.59;6209719;23;20028;-77
2024/03/18 06:33:36;;;;;;;0.00;0.00;;;;;;;8.53;100.00;100201.41;6238744;23;20767;-77
2024/03/18 06:36:08;;;;;;;0.00;0.00;;;;;;;8.64;100.00;100193.31;6234912;23;20008;-77
2024/03/18 06:38:34;;;;;;;0.00;0.00;;;;;;;8.75;100.00;100195.06;6189420;23;20015;-76
2024/03/18 06:41:00;;;;;;;0.00;0.00;;;;;;;8.87;100.00;100203.88;6235169;23;20008;-76
2024/03/18 06:43:25;;;;;;;0.00;0.00;;;;;;;8.95;100.00;100207.22;6235166;23;20000;-77
2024/03/18 06:45:50;;;;;;;0.00;0.00;;;;;;;8.96;100.00;100206.94;6187688;23;20020;-76
2024/03/18 06:48:16;;;;;;;0.00;0.00;;;;;;;9.06;100.00;100211.69;6230849;23;20004;-78
2024/03/18 06:50:41;;;;;;;0.00;0.00;;;;;;;9.17;100.00;100224.31;6186684;23;20020;-77
2024/03/18 06:53:07;;;;;;;0.00;0.00;;;;;;;9.25;100.00;100226.53;6233661;23;20009;-77
2024/03/18 06:55:36;;;;;;;0.00;0.00;;;;;;;9.30;100.00;100223.06;6212211;23;20016;-76
2024/03/18 06:58:05;;;;;;;0.00;0.00;;;;;;;9.35;100.00;100208.63;6209794;23;20252;-76
2024/03/18 07:00:31;;;;;;;0.00;0.00;;;;;;;9.49;100.00;100217.97;6234806;23;20008;-74
2024/03/18 07:02:57;;;;;;;0.00;0.00;;;;;;;9.56;100.00;100215.84;6239908;22;20032;-74
2024/03/18 07:05:26;;;;;;;0.00;0.00;;;;;;;9.68;100.00;100217.53;6235784;23;20000;-77
2024/03/18 07:07:57;;;;;;;0.00;0.00;;;;;;;9.70;100.00;100212.63;6237459;23;20028;-80
2024/03/18 07:10:22;;;;;;;0.00;0.00;;;;;;;9.84;100.00;100237.53;6234754;23;20050;-77
2024/03/18 07:12:48;;;;;;;0.00;0.00;;;;;;;9.72;100.00;100215.91;6235294;23;20360;-77
2024/03/18 07:15:16;;;;;;;0.00;0.00;;;;;;;9.79;100.00;100224.69;6236774;23;20038;-79
2024/03/18 07:17:46;;;;;;;0.00;0.00;;;;;;;9.79;100.00;100230.97;6206555;23;20016;-76
2024/03/18 07:20:12;;;;;;;0.05;0.05;;;;;;;9.83;100.00;100230.41;6211298;23;20000;-76
2024/03/18 07:22:41;;;;;;;0.00;0.00;;;;;;;9.84;100.00;100221.16;6210195;23;20004;-75
2024/03/18 07:25:11;;;;;;;0.00;0.00;;;;;;;9.87;100.00;100221.47;6209803;23;20004;-76
2024/03/18 07:27:48;;;;;;;0.00;0.00;;;;;;;9.92;100.00;100221.47;6239476;22;20131;-78
2024/03/18 07:30:17;;;;;;;0.00;0.00;;;;;;;9.90;100.00;100220.91;6210864;23;20419;-75
2024/03/18 07:32:44;;;;;;;0.00;0.00;;;;;;;10.06;100.00;100231.91;6237332;23;20015;-77
2024/03/18 07:35:13;;;;;;;0.00;0.00;;;;;;;10.03;100.00;100213.31;6187551;23;20015;-75
2024/03/18 07:37:42;;;;;;;0.00;0.00;;;;;;;10.18;100.00;100227.03;6206728;23;20073;-76
2024/03/18 07:40:11;;;;;;;0.00;0.00;;;;;;;10.08;100.00;100208.69;6212608;23;20087;-74
2024/03/18 07:42:41;;;;;;;0.00;0.00;;;;;;;10.18;100.00;100210.63;6213385;23;20011;-76
2024/03/18 07:50:45;;;;;;;0.00;0.00;;;;;;;10.37;100.00;100223.84;6268466;22;20019;-74
2024/03/18 07:53:11;;;;;;;0.00;0.00;;;;;;;10.46;100.00;100222.22;6191310;22;20369;-75
2024/03/18 07:55:36;;;;;;;0.00;0.00;;;;;;;10.64;100.00;100223.63;6218738;22;20008;-75
2024/03/18 07:58:02;;;;;;;0.00;0.00;;;;;;;10.65;100.00;100212.41;6215606;22;20008;-76
2024/03/18 08:00:28;;;;;;;0.00;0.00;;;;;;;10.86;100.00;100231.56;6213237;22;20016;-78
2024/03/18 08:02:54;;;;;;;0.00;0.00;;;;;;;10.93;100.00;100215.69;6270201;22;20034;-74
2024/03/18 08:05:20;;;;;;;0.00;0.00;;;;;;;11.07;100.00;100226.09;6240469;22;20008;-75
2024/03/18 08:07:45;;;;;;;0.00;0.00;;;;;;;11.23;100.00;100225.00;6217942;22;20007;-75
2024/03/18 08:10:11;;;;;;;0.00;0.00;;;;;;;11.39;100.00;100224.97;6241764;22;20003;-77
2024/03/18 08:12:36;;;;;;;0.00;0.00;;;;;;;11.50;100.00;100218.38;6215089;22;20698;-75
2024/03/18 08:15:03;;;;;;;0.00;0.00;;;;;;;11.77;100.00;100222.69;6240435;22;20012;-76
2024/03/18 08:17:28;;;;;;;0.00;0.00;;;;;;;11.80;100.00;100211.19;6214616;22;20007;-75
2024/03/18 08:19:53;;;;;;;0.00;0.00;;;;;;;11.92;100.00;100230.06;6241827;22;20365;-77
2024/03/18 08:22:19;;;;;;;0.00;0.00;;;;;;;11.98;100.00;100229.78;6242912;22;20000;-76
2024/03/18 08:24:49;;;;;;;0.00;0.00;;;;;;;11.95;100.00;100219.38;6242965;22;20007;-77
2024/03/18 08:27:15;;;;;;;0.00;0.00;;;;;;;12.10;100.00;100220.41;6218104;22;20008;-75
2024/03/18 08:29:41;;;;;;;0.00;0.00;;;;;;;12.20;100.00;100217.63;6217238;22;20008;-76
2024/03/18 08:32:07;;;;;;;0.00;0.00;;;;;;;12.50;100.00;100216.63;6242262;22;20037;-75
2024/03/18 08:34:32;;;;;;;0.00;0.00;;;;;;;12.74;100.00;100213.16;6239976;22;20007;-76
2024/03/18 08:37:01;;;;;;;0.00;0.00;;;;;;;12.97;100.00;100216.31;6215819;22;20419;-77
2024/03/18 08:39:27;;;;;;;0.00;0.00;;;;;;;12.95;100.00;100185.56;6215842;22;20011;-76
2024/03/18 08:41:52;;;;;;;0.00;0.00;;;;;;;13.42;100.00;100211.53;6242149;22;20003;-76
2024/03/18 08:44:18;;;;;;;0.00;0.00;;;;;;;13.52;100.00;100202.34;6217410;22;20018;-77
2024/03/18 08:46:44;;;;;;;0.00;0.00;;;;;;;14.26;100.00;100213.00;6239990;22;20007;-76
2024/03/18 08:49:13;;;;;;;0.00;0.00;;;;;;;16.21;98.34;100215.16;6268817;22;20024;-77
2024/03/18 08:51:41;;;;;;;0.00;0.00;;;;;;;16.66;87.91;100222.72;6215316;22;20007;-76
2024/03/18 08:54:07;;;;;;;0.00;0.00;;;;;;;16.46;84.08;100212.97;6245730;22;20079;-76
2024/03/18 08:56:33;;;;;;;0.00;0.00;;;;;;;15.77;85.44;100222.13;6215644;22;20010;-76
2024/03/18 08:58:59;;;;;;;0.00;0.00;;;;;;;14.81;89.11;100227.09;6216077;22;20011;-75
2024/03/18 09:01:26;;;;;;;0.00;0.00;;;;;;;14.22;94.04;100225.69;6242888;22;20007;-75
2024/03/18 09:03:55;;;;;;;0.00;0.00;;;;;;;13.85;96.93;100219.03;6217632;22;20003;-75
2024/03/18 09:06:21;;;;;;;0.00;0.00;;;;;;;13.77;98.72;100202.06;6243493;22;20015;-76
2024/03/18 09:08:46;;;;;;;0.00;0.00;;;;;;;13.66;98.44;100206.03;6243888;22;20636;-76
2024/03/18 09:11:12;;;;;;;0.00;0.00;;;;;;;13.63;98.91;100234.09;6215197;22;20771;-76
2024/03/18 09:13:41;;;;;;;0.00;0.00;;;;;;;13.56;100.00;100231.69;6271128;22;20014;-74
2024/03/18 09:16:07;;;;;;;0.00;0.00;;;;;;;13.59;100.00;100241.28;6216098;22;20018;-75
2024/03/18 09:18:32;;;;;;;0.00;0.00;;;;;;;13.46;99.82;100234.53;6241105;22;20015;-74
2024/03/18 09:20:58;;;;;;;0.00;0.00;;;;;;;13.38;99.27;100244.22;6217393;22;20003;-76
2024/03/18 09:23:23;;;;;;;0.00;0.00;;;;;;;13.37;99.38;100241.78;6242952;22;20012;-75
2024/03/18 09:25:52;;;;;;;0.00;0.00;;;;;;;13.43;98.91;100246.09;6272470;22;20119;-77
2024/03/18 09:28:17;;;;;;;0.00;0.00;;;;;;;13.77;98.47;100254.28;6215098;22;20007;-78
2024/03/18 09:30:43;;;;;;;0.00;0.00;;;;;;;14.32;96.34;100256.66;6270424;22;20082;-77
2024/03/18 09:33:11;;;;;;;0.00;0.00;;;;;;;14.82;90.04;100236.97;6191859;22;20032;-78
2024/03/18 09:35:37;;;;;;;0.00;0.00;;;;;;;14.69;87.27;100237.75;6245351;22;20322;-77
2024/03/18 09:38:08;;;;;;;0.00;0.00;;;;;;;14.55;86.63;100250.56;6215383;22;20011;-76
2024/03/18 09:40:33;;;;;;;0.00;0.00;;;;;;;14.92;86.31;100243.44;6272518;22;20008;-76
2024/03/18 09:42:58;;;;;;;0.00;0.00;;;;;;;16.14;78.42;100261.66;6215094;22;20090;-76
2024/03/18 09:45:24;;;;;;;0.00;0.00;;;;;;;16.18;75.73;100246.13;6217535;22;20479;-77
2024/03/18 09:47:50;;;;;;;0.00;0.00;;;;;;;15.79;74.60;100264.00;6243603;22;20011;-76
2024/03/18 09:50:16;;;;;;;0.00;0.00;;;;;;;15.43;75.52;100239.81;6216001;22;20015;-77
2024/03/18 09:52:44;;;;;;;0.00;0.00;;;;;;;16.32;73.40;100259.09;6219645;22;20008;-77
2024/03/18 09:55:21;;;;;;;0.00;0.00;;;;;;;17.44;68.14;100243.75;6215544;22;20008;-77
2024/03/18 09:57:46;;;;;;;0.00;0.00;;;;;;;17.21;65.89;100259.53;6244172;22;20027;-75
2024/03/18 10:00:12;;;;;;;0.00;0.00;;;;;;;16.98;68.10;100259.56;6215524;22;20034;-76
2024/03/18 10:02:38;;;;;;;0.00;0.00;;;;;;;16.94;66.57;100236.44;6245692;22;20454;-76
2024/03/18 10:05:09;;;;;;;0.00;0.00;;;;;;;16.56;67.64;100248.59;6218531;22;20015;-75
2024/03/18 10:07:35;;;;;;;0.00;0.00;;;;;;;16.50;69.46;100254.53;6219124;22;20018;-77
2024/03/18 10:10:04;;;;;;;0.00;0.00;;;;;;;16.86;68.18;100265.59;6217971;22;20023;-76
2024/03/18 10:12:30;;;;;;;0.00;0.00;;;;;;;17.86;68.25;100266.41;6218569;22;20032;-76
2024/03/18 10:14:55;;;;;;;0.00;0.00;;;;;;;21.36;55.70;100282.16;6244939;22;20010;-76
2024/03/18 10:17:21;;;;;;;0.00;0.00;;;;;;;21.72;49.90;100277.06;6217475;22;20346;-76
2024/03/18 10:19:47;;;;;;;0.00;0.00;;;;;;;22.12;49.07;100276.38;6243327;22;20331;-75
2024/03/18 10:22:14;;;;;;;0.00;0.00;;;;;;;22.45;48.39;100276.28;6269053;22;20384;-75
2024/03/18 10:24:43;;;;;;;0.00;0.00;;;;;;;23.73;46.13;100270.34;6216842;22;20090;-75
2024/03/18 10:27:13;;;;;;;0.00;0.00;;;;;;;24.58;41.73;100285.59;6267723;22;20492;-75
2024/03/18 10:29:40;;;;;;;0.00;0.00;;;;;;;23.17;43.94;100278.44;6246768;22;20004;-75
2024/03/18 10:32:18;;;;;;;0.00;0.00;;;;;;;23.22;44.43;100271.81;6254098;22;20007;-74
2024/03/18 10:34:43;;;;;;;0.00;0.00;;;;;;;25.23;42.54;100278.63;6254671;22;20090;-76
2024/03/18 10:37:17;;;;;;;0.00;0.00;;;;;;;28.28;36.04;100271.94;6283233;22;20015;-75
2024/03/18 10:39:52;;;;;;;0.00;0.00;;;;;;;26.25;37.45;100265.22;6244666;22;20007;-74
2024/03/18 10:42:20;;;;;;;0.00;0.00;;;;;;;27.23;36.88;100270.13;6272409;22;20027;-74
2024/03/18 10:44:59;;;;;;;0.00;0.00;;;;;;;29.82;32.69;100275.78;6266717;22;20059;-74
2024/03/18 10:47:25;;;;;;;0.00;0.00;;;;;;;30.96;29.66;100274.03;6243001;22;20057;-75
2024/03/18 10:49:53;;;;;;;0.00;0.00;;;;;;;29.64;30.61;100272.97;6239256;22;20066;-74
2024/03/18 10:52:20;;;;;;;0.00;0.00;;;;;;;29.17;32.06;100272.84;6216950;22;20035;-75
2024/03/18 10:54:46;;;;;;;0.00;0.00;;;;;;;28.08;32.89;100264.97;6216440;22;20016;-75
2024/03/18 10:57:12;;;;;;;0.00;0.00;;;;;;;27.81;34.14;100267.94;6216556;22;20028;-75
2024/03/18 10:59:39;;;;;;;0.00;0.00;;;;;;;30.65;30.63;100268.13;6191689;22;20016;-75
2024/03/18 11:02:12;;;;;;;0.00;0.00;;;;;;;29.59;30.35;100260.88;6240022;22;20060;-75
2024/03/18 11:04:41;;;;;;;0.00;0.00;;;;;;;26.43;33.77;100284.28;6273529;22;20082;-76
2024/03/18 11:07:08;;;;;;;0.00;0.00;;;;;;;23.26;39.30;100269.09;6217128;22;20038;-74
2024/03/18 11:09:38;;;;;;;0.00;0.00;;;;;;;21.49;43.67;100252.41;6242724;22;20415;-76
2024/03/18 11:12:22;;;;;;;0.00;0.00;;;;;;;20.84;45.40;100277.06;6268743;22;20003;-73
2024/03/18 11:15:07;;;;;;;0.00;0.00;;;;;;;20.34;47.61;100260.06;6223561;22;20089;-74
2024/03/18 11:17:39;;;;;;;0.00;0.00;;;;;;;20.96;45.59;100271.56;6242254;22;20018;-75
2024/03/18 11:20:12;;;;;;;0.00;0.00;;;;;;;19.95;48.55;100277.91;6243930;22;20055;-74
2024/03/18 11:22:57;;;;;;;0.00;0.00;;;;;;;19.32;51.48;100273.66;6241139;22;20368;-75
2024/03/18 11:25:30;;;;;;;0.00;0.00;;;;;;;18.95;52.53;100281.53;6242731;22;20007;-76
2024/03/18 11:28:14;;;;;;;0.00;0.00;;;;;;;18.77;54.20;100288.16;6243904;22;20736;-77